Aérodrome :







RETROUVEZ-NOUS SUR...

 
LOGIN :

S'inscrire | Disclaimer

   EN    FR    IT 

 









Légende :    VFR   VFR Marginal   IFR   IFR Intensif   IFR Très Intensif
Visi : 
Plafond : 
>= 8 km
>= 3000ft
5 à 8 km
1000 à 3000 ft
1500m à 5 km
500 à 1000 ft
800 à 1500m
200 à 500 ft
< 800m
< 200 ft
Symboles :   Orages  Brouillard  Fortes neiges  Fortes précipitations  Vent > 20 kt






- Altitude de l'aérodrome : 40 ft
- Code IATA : YRF


CYCA - Cartwright

DERNIER METAR :
  • 290727Z AUTO 00000KT 1 1/2SM BR OVC002 M08/M09 A2981 RMK SLP101

METARs EXPIRÉS :
  • 290700Z AUTO 19002KT 9SM OVC002 M08/M09 A2983 RMK SLP105
  • 290600Z AUTO 17002KT 9SM OVC004 M08/M09 A2985 RMK SLP110
  • 290531Z AUTO 20003KT 9SM BKN004 OVC075 M09/M11 A2985 RMK SLP111
  • 290500Z AUTO 21004KT 9SM OVC080 M10/M11 A2985 RMK SLP112

TAF AMD TAF CYCA
Valide du 29 à 05h jusqu'au 29 à 14h UTC


290547Z 2905/2914 VRB03KT P6SM BKN004 OVC070
TEMPO 2905/2912 SCT004 OVC070
FM291200 36007KT 5SM -SN OVC030
PROB30 2912/2914 2SM -SN BR OVC004 RMK FCST BASED ON AUTO OBS. NXT FCST BY 290800Z
FIR CZQX / Amérique du Nord



MET'MAP, la Météo Aéronautique d'un coup d'oeil ! - Copyright ORBIFLY Décembre 2007 - Disclaimer

ORBIFLY MET'MAP TEAM :

Programmation & Développement : Alexandra Zaïnal
Sur une idée originale de : Baudouin d'Aumeries
Assistance à la programmation : Marc-Olivier Méhu
Soutien technique & logistique : Manuel Goepfert

Contact : metmap@orbifly.com




SOURCES & CREDITS :

   NOAA